Shinsei Maru — JD2188 — position and weather

sailwx.info

Track history (hours):
 
Tides and Currents Weather Stations Pressure Air Temp Water Temp Dewpoint Dewpoint Depression Visibility Wind Speed Wind Dir Waves Ship Positions

Shinsei Maru

Last reported at 2017-Feb-21 01:33 UTC. Time now 2017-Feb-21 10:02 UTC.
Position N 35°03' E 139°37'.

Length 104 m; draft 6.5 m.

Type: Tanker. MMSI: 431301775.

Date/timePositionNaut miles runAvg speedWind from/ knotsBaromVisibWave heightAir tempDewpointWater temp
2017-Feb-21 01:33N 35°03' E 139°37'1313.0
2017-Feb-21 00:34N 35°13' E 139°46'1211.8
2017-Feb-20 23:33N 35°25' E 139°44'6 5.7
2017-Feb-20 22:33N 35°29' E 139°49'0 0.0
2017-Feb-20 21:33N 35°29' E 139°49'0 0.0
2017-Feb-20 20:33N 35°29' E 139°49'0 0.0
2017-Feb-20 19:31N 35°29' E 139°49'0 0.1
2017-Feb-20 18:33N 35°29' E 139°49'0 0.0
2017-Feb-20 17:33N 35°29' E 139°49'0 0.0
2017-Feb-20 16:33N 35°29' E 139°49'0 0.0
2017-Feb-20 15:31N 35°29' E 139°49'0 0.0
2017-Feb-20 14:31N 35°29' E 139°49'0 0.0
2017-Feb-20 13:31N 35°29' E 139°49'0 0.1
2017-Feb-20 12:33N 35°29' E 139°49'0 0.0
2017-Feb-20 11:30N 35°29' E 139°49'0 0.0
2017-Feb-20 10:27N 35°29' E 139°49'0 0.3
2017-Feb-20 09:33N 35°29' E 139°49'0 0.0
2017-Feb-20 08:31N 35°29' E 139°49'0 0.0
2017-Feb-20 07:33N 35°29' E 139°49'0 0.2
2017-Feb-20 06:30N 35°29' E 139°49'0 0.2
2017-Feb-20 05:31N 35°29' E 139°49'3 2.8
2017-Feb-20 04:31N 35°31' E 139°46'0 0.0
2017-Feb-20 03:31N 35°31' E 139°46'0 0.0
2017-Feb-20 02:31N 35°31' E 139°46'0 0.0
2017-Feb-20 01:31N 35°31' E 139°46'0 0.0
2017-Feb-20 00:31N 35°31' E 139°46'0 0.0
2017-Feb-19 23:28N 35°31' E 139°46'2 2.0
2017-Feb-19 22:33N 35°30' E 139°44'4 3.5
2017-Feb-19 21:33N 35°29' E 139°48'1 0.8
2017-Feb-19 20:33N 35°29' E 139°49'0 0.0
2017-Feb-19 19:32N 35°29' E 139°49'0 0.1
2017-Feb-19 18:34N 35°29' E 139°49'0 0.1
2017-Feb-19 17:33N 35°29' E 139°49'0 0.0
2017-Feb-19 16:32N 35°29' E 139°49'0 0.0
2017-Feb-19 15:34N 35°29' E 139°49'0 0.1
2017-Feb-19 14:32N 35°29' E 139°49'0 0.0
2017-Feb-19 13:32N 35°29' E 139°49'0 0.0
2017-Feb-19 12:32N 35°29' E 139°49'0 0.0
2017-Feb-19 11:32N 35°29' E 139°49'0 0.0
2017-Feb-19 10:32N 35°29' E 139°49'0 0.0
2017-Feb-19 09:32N 35°29' E 139°49'0 0.0
2017-Feb-19 08:32N 35°29' E 139°49'3 3.3
2017-Feb-19 07:33N 35°30' E 139°45'0 0.0
2017-Feb-19 06:33N 35°30' E 139°45'0 0.0
2017-Feb-19 05:33N 35°30' E 139°45'0 0.0
2017-Feb-19 04:33N 35°30' E 139°45'0 0.0
2017-Feb-19 03:33N 35°30' E 139°45'0 0.0
2017-Feb-19 02:33N 35°30' E 139°45'0 0.0
2017-Feb-19 01:33N 35°30' E 139°45'0 0.0
2017-Feb-19 00:33N 35°30' E 139°45'0 0.0
2017-Feb-18 23:33N 35°30' E 139°45'0 0.0
2017-Feb-18 22:33N 35°30' E 139°45'0 0.0
2017-Feb-18 21:33N 35°30' E 139°45'0 0.0
2017-Feb-18 20:33N 35°30' E 139°45'0 0.0
2017-Feb-18 19:33N 35°30' E 139°45'0 0.0
2017-Feb-18 18:33N 35°30' E 139°45'0 0.0
2017-Feb-18 17:30N 35°30' E 139°45'0 0.0
2017-Feb-18 16:33N 35°30' E 139°45'0 0.0
2017-Feb-18 15:33N 35°30' E 139°45'0 0.0
2017-Feb-18 14:33N 35°30' E 139°45'0 0.0
2017-Feb-18 13:33N 35°30' E 139°45'0 0.0
2017-Feb-18 12:33N 35°30' E 139°45'0 0.0
2017-Feb-18 11:33N 35°30' E 139°45'0 0.0
2017-Feb-18 10:33N 35°30' E 139°45'0 0.0
2017-Feb-18 09:33N 35°30' E 139°45'0 0.0
2017-Feb-18 08:33N 35°30' E 139°45'0 0.0
2017-Feb-18 07:33N 35°30' E 139°45'0 0.0
2017-Feb-18 06:33N 35°30' E 139°45'0 0.0
2017-Feb-18 05:33N 35°30' E 139°45'0 0.0
2017-Feb-18 04:33N 35°30' E 139°45'0 0.0
2017-Feb-18 03:30N 35°30' E 139°45'0 0.0
2017-Feb-18 02:33N 35°30' E 139°45'0 0.0
2017-Feb-18 01:33N 35°30' E 139°45'0 0.0
2017-Feb-18 00:33N 35°30' E 139°45'1 0.7
2017-Feb-17 23:33N 35°30' E 139°45'6 5.9
2017-Feb-17 22:31N 35°24' E 139°45'0 0.0
2017-Feb-17 21:31N 35°24' E 139°45'0 0.0
2017-Feb-17 20:28N 35°24' E 139°45'0 0.0
2017-Feb-17 19:28N 35°24' E 139°45'0 0.0
2017-Feb-17 18:31N 35°24' E 139°45'0 0.0
2017-Feb-17 17:31N 35°24' E 139°45'0 0.0
2017-Feb-17 16:31N 35°24' E 139°45'0 0.0
2017-Feb-17 15:31N 35°24' E 139°45'0 0.0
2017-Feb-17 14:28N 35°24' E 139°45'0 0.0
2017-Feb-17 13:28N 35°24' E 139°45'0 0.0
2017-Feb-17 12:28N 35°24' E 139°45'0 0.2
2017-Feb-17 11:33N 35°24' E 139°45'0 0.0
2017-Feb-17 10:33N 35°24' E 139°45'0 0.0
2017-Feb-17 09:33N 35°24' E 139°45'0 0.0
2017-Feb-17 08:33N 35°24' E 139°45'0 0.0
2017-Feb-17 07:33N 35°24' E 139°45'0 0.0
2017-Feb-17 06:33N 35°24' E 139°45'0 0.0
2017-Feb-17 05:32N 35°24' E 139°45'0 0.1
2017-Feb-17 04:33N 35°24' E 139°45'0 0.0
2017-Feb-17 03:34N 35°24' E 139°45'0 0.1
2017-Feb-17 02:34N 35°24' E 139°45'0 0.1
2017-Feb-17 01:33N 35°24' E 139°45'0 0.1
2017-Feb-17 00:33N 35°24' E 139°45'0 0.0
2017-Feb-16 23:33N 35°24' E 139°45'0 0.0
2017-Feb-16 22:32N 35°24' E 139°45'0 0.0
2017-Feb-16 21:34N 35°24' E 139°45'0 0.0
2017-Feb-16 20:33N 35°24' E 139°45'0 0.1
2017-Feb-16 19:33N 35°24' E 139°45'0 0.1
2017-Feb-16 18:31N 35°24' E 139°45'0 0.0
2017-Feb-16 17:33N 35°24' E 139°45'0 0.0
2017-Feb-16 16:32N 35°24' E 139°45'0 0.1
2017-Feb-16 15:32N 35°24' E 139°45'0 0.1
2017-Feb-16 14:31N 35°24' E 139°45'0 0.0
2017-Feb-16 13:33N 35°24' E 139°45'0 0.1
2017-Feb-16 12:32N 35°24' E 139°45'0 0.0
2017-Feb-16 11:32N 35°24' E 139°45'0 0.0
2017-Feb-16 10:32N 35°24' E 139°45'0 0.0
2017-Feb-16 09:32N 35°24' E 139°45'0 0.0
2017-Feb-16 08:32N 35°24' E 139°45'0 0.0
2017-Feb-16 07:32N 35°24' E 139°45'0 0.0
2017-Feb-16 06:32N 35°24' E 139°45'0 0.0
2017-Feb-16 05:32N 35°24' E 139°45'0 0.1
2017-Feb-16 04:32N 35°24' E 139°45'0 0.0
2017-Feb-16 03:32N 35°24' E 139°45'0 0.0
2017-Feb-16 02:32N 35°24' E 139°45'0 0.0
2017-Feb-16 01:32N 35°24' E 139°45'0 0.0
2017-Feb-16 00:29N 35°24' E 139°45'0 0.0
2017-Feb-15 23:32N 35°24' E 139°45'0 0.0
2017-Feb-15 22:32N 35°24' E 139°45'2 2.1
2017-Feb-15 21:34N 35°22' E 139°44'1211.6
2017-Feb-15 20:33N 35°10' E 139°47'  
Track history (hours):
 
Tides and Currents Weather Stations Pressure Air Temp Water Temp Dewpoint Dewpoint Depression Visibility Wind Speed Wind Dir Waves Ship Positions

Shinsei Maru

Last reported at 2017-Feb-21 01:33 UTC. Time now 2017-Feb-21 10:02 UTC.
Position N 35°03' E 139°37'.

Length 104 m; draft 6.5 m.

Type: Tanker. MMSI: 431301775.

Date/timePositionNaut miles runAvg speedWind from/ knotsBaromVisibWave heightAir tempDewpointWater temp
2017-Feb-21 01:33N 35°03' E 139°37'1313.0
2017-Feb-21 00:34N 35°13' E 139°46'1211.8
2017-Feb-20 23:33N 35°25' E 139°44'6 5.7
2017-Feb-20 22:33N 35°29' E 139°49'0 0.0
2017-Feb-20 21:33N 35°29' E 139°49'0 0.0
2017-Feb-20 20:33N 35°29' E 139°49'0 0.0
2017-Feb-20 19:31N 35°29' E 139°49'0 0.1
2017-Feb-20 18:33N 35°29' E 139°49'0 0.0
2017-Feb-20 17:33N 35°29' E 139°49'0 0.0
2017-Feb-20 16:33N 35°29' E 139°49'0 0.0
2017-Feb-20 15:31N 35°29' E 139°49'0 0.0
2017-Feb-20 14:31N 35°29' E 139°49'0 0.0
2017-Feb-20 13:31N 35°29' E 139°49'0 0.1
2017-Feb-20 12:33N 35°29' E 139°49'0 0.0
2017-Feb-20 11:30N 35°29' E 139°49'0 0.0
2017-Feb-20 10:27N 35°29' E 139°49'0 0.3
2017-Feb-20 09:33N 35°29' E 139°49'0 0.0
2017-Feb-20 08:31N 35°29' E 139°49'0 0.0
2017-Feb-20 07:33N 35°29' E 139°49'0 0.2
2017-Feb-20 06:30N 35°29' E 139°49'0 0.2
2017-Feb-20 05:31N 35°29' E 139°49'3 2.8
2017-Feb-20 04:31N 35°31' E 139°46'0 0.0
2017-Feb-20 03:31N 35°31' E 139°46'0 0.0
2017-Feb-20 02:31N 35°31' E 139°46'0 0.0
2017-Feb-20 01:31N 35°31' E 139°46'0 0.0
2017-Feb-20 00:31N 35°31' E 139°46'0 0.0
2017-Feb-19 23:28N 35°31' E 139°46'2 2.0
2017-Feb-19 22:33N 35°30' E 139°44'4 3.5
2017-Feb-19 21:33N 35°29' E 139°48'1 0.8
2017-Feb-19 20:33N 35°29' E 139°49'0 0.0
2017-Feb-19 19:32N 35°29' E 139°49'0 0.1
2017-Feb-19 18:34N 35°29' E 139°49'0 0.1
2017-Feb-19 17:33N 35°29' E 139°49'0 0.0
2017-Feb-19 16:32N 35°29' E 139°49'0 0.0
2017-Feb-19 15:34N 35°29' E 139°49'0 0.1
2017-Feb-19 14:32N 35°29' E 139°49'0 0.0
2017-Feb-19 13:32N 35°29' E 139°49'0 0.0
2017-Feb-19 12:32N 35°29' E 139°49'0 0.0
2017-Feb-19 11:32N 35°29' E 139°49'0 0.0
2017-Feb-19 10:32N 35°29' E 139°49'0 0.0
2017-Feb-19 09:32N 35°29' E 139°49'0 0.0
2017-Feb-19 08:32N 35°29' E 139°49'3 3.3
2017-Feb-19 07:33N 35°30' E 139°45'0 0.0
2017-Feb-19 06:33N 35°30' E 139°45'0 0.0
2017-Feb-19 05:33N 35°30' E 139°45'0 0.0
2017-Feb-19 04:33N 35°30' E 139°45'0 0.0
2017-Feb-19 03:33N 35°30' E 139°45'0 0.0
2017-Feb-19 02:33N 35°30' E 139°45'0 0.0
2017-Feb-19 01:33N 35°30' E 139°45'0 0.0
2017-Feb-19 00:33N 35°30' E 139°45'0 0.0
2017-Feb-18 23:33N 35°30' E 139°45'0 0.0
2017-Feb-18 22:33N 35°30' E 139°45'0 0.0
2017-Feb-18 21:33N 35°30' E 139°45'0 0.0
2017-Feb-18 20:33N 35°30' E 139°45'0 0.0
2017-Feb-18 19:33N 35°30' E 139°45'0 0.0
2017-Feb-18 18:33N 35°30' E 139°45'0 0.0
2017-Feb-18 17:30N 35°30' E 139°45'0 0.0
2017-Feb-18 16:33N 35°30' E 139°45'0 0.0
2017-Feb-18 15:33N 35°30' E 139°45'0 0.0
2017-Feb-18 14:33N 35°30' E 139°45'0 0.0
2017-Feb-18 13:33N 35°30' E 139°45'0 0.0
2017-Feb-18 12:33N 35°30' E 139°45'0 0.0
2017-Feb-18 11:33N 35°30' E 139°45'0 0.0
2017-Feb-18 10:33N 35°30' E 139°45'0 0.0
2017-Feb-18 09:33N 35°30' E 139°45'0 0.0
2017-Feb-18 08:33N 35°30' E 139°45'0 0.0
2017-Feb-18 07:33N 35°30' E 139°45'0 0.0
2017-Feb-18 06:33N 35°30' E 139°45'0 0.0
2017-Feb-18 05:33N 35°30' E 139°45'0 0.0
2017-Feb-18 04:33N 35°30' E 139°45'0 0.0
2017-Feb-18 03:30N 35°30' E 139°45'0 0.0
2017-Feb-18 02:33N 35°30' E 139°45'0 0.0
2017-Feb-18 01:33N 35°30' E 139°45'0 0.0
2017-Feb-18 00:33N 35°30' E 139°45'1 0.7
2017-Feb-17 23:33N 35°30' E 139°45'6 5.9
2017-Feb-17 22:31N 35°24' E 139°45'0 0.0
2017-Feb-17 21:31N 35°24' E 139°45'0 0.0
2017-Feb-17 20:28N 35°24' E 139°45'0 0.0
2017-Feb-17 19:28N 35°24' E 139°45'0 0.0
2017-Feb-17 18:31N 35°24' E 139°45'0 0.0
2017-Feb-17 17:31N 35°24' E 139°45'0 0.0
2017-Feb-17 16:31N 35°24' E 139°45'0 0.0
2017-Feb-17 15:31N 35°24' E 139°45'0 0.0
2017-Feb-17 14:28N 35°24' E 139°45'0 0.0
2017-Feb-17 13:28N 35°24' E 139°45'0 0.0
2017-Feb-17 12:28N 35°24' E 139°45'0 0.2
2017-Feb-17 11:33N 35°24' E 139°45'0 0.0
2017-Feb-17 10:33N 35°24' E 139°45'0 0.0
2017-Feb-17 09:33N 35°24' E 139°45'0 0.0
2017-Feb-17 08:33N 35°24' E 139°45'0 0.0
2017-Feb-17 07:33N 35°24' E 139°45'0 0.0
2017-Feb-17 06:33N 35°24' E 139°45'0 0.0
2017-Feb-17 05:32N 35°24' E 139°45'0 0.1
2017-Feb-17 04:33N 35°24' E 139°45'0 0.0
2017-Feb-17 03:34N 35°24' E 139°45'0 0.1
2017-Feb-17 02:34N 35°24' E 139°45'0 0.1
2017-Feb-17 01:33N 35°24' E 139°45'0 0.1
2017-Feb-17 00:33N 35°24' E 139°45'0 0.0
2017-Feb-16 23:33N 35°24' E 139°45'0 0.0
2017-Feb-16 22:32N 35°24' E 139°45'0 0.0
2017-Feb-16 21:34N 35°24' E 139°45'0 0.0
2017-Feb-16 20:33N 35°24' E 139°45'0 0.1
2017-Feb-16 19:33N 35°24' E 139°45'0 0.1
2017-Feb-16 18:31N 35°24' E 139°45'0 0.0
2017-Feb-16 17:33N 35°24' E 139°45'0 0.0
2017-Feb-16 16:32N 35°24' E 139°45'0 0.1
2017-Feb-16 15:32N 35°24' E 139°45'0 0.1
2017-Feb-16 14:31N 35°24' E 139°45'0 0.0
2017-Feb-16 13:33N 35°24' E 139°45'0 0.1
2017-Feb-16 12:32N 35°24' E 139°45'0 0.0
2017-Feb-16 11:32N 35°24' E 139°45'0 0.0
2017-Feb-16 10:32N 35°24' E 139°45'0 0.0
2017-Feb-16 09:32N 35°24' E 139°45'0 0.0
2017-Feb-16 08:32N 35°24' E 139°45'0 0.0
2017-Feb-16 07:32N 35°24' E 139°45'0 0.0
2017-Feb-16 06:32N 35°24' E 139°45'0 0.0
2017-Feb-16 05:32N 35°24' E 139°45'0 0.1
2017-Feb-16 04:32N 35°24' E 139°45'0 0.0
2017-Feb-16 03:32N 35°24' E 139°45'0 0.0
2017-Feb-16 02:32N 35°24' E 139°45'0 0.0
2017-Feb-16 01:32N 35°24' E 139°45'0 0.0
2017-Feb-16 00:29N 35°24' E 139°45'0 0.0
2017-Feb-15 23:32N 35°24' E 139°45'0 0.0
2017-Feb-15 22:32N 35°24' E 139°45'2 2.1
2017-Feb-15 21:34N 35°22' E 139°44'1211.6
2017-Feb-15 20:33N 35°10' E 139°47'  

Dump ship's entire track history